Time;durP1;ratioP1;P1;durP2;ratioP2;P2;SDS_P1;SDS_P2;PMS_P1;PMS_P2;Temp;Humidity;BMP_temperature;BMP_pressure;BME280_temperature;BME280_humidity;BME280_pressure;Samples;Min_cycle;Max_cycle;Signal;HPM_P1;HPM_P2
2023/04/09 00:01:46;;;;;;;21.48;12.15;;;;;;;-144.57;100.00;62443.72;5052923;28;20485;-64
2023/04/09 00:04:12;;;;;;;21.40;12.70;;;;;;;-144.57;100.00;62443.72;5054549;28;20049;-63
2023/04/09 00:06:38;;;;;;;19.80;12.52;;;;;;;-144.57;100.00;62443.72;5054275;28;20064;-63
2023/04/09 00:09:03;;;;;;;18.45;11.85;;;;;;;-144.57;100.00;62443.72;5053411;28;20041;-64
2023/04/09 00:11:29;;;;;;;23.10;12.23;;;;;;;-144.57;100.00;62443.72;5053980;28;20139;-63
2023/04/09 00:13:57;;;;;;;16.67;11.93;;;;;;;-144.57;100.00;62443.72;5054280;28;20051;-63
2023/04/09 00:16:22;;;;;;;22.77;12.85;;;;;;;-144.57;100.00;62443.72;5054007;28;20132;-63
2023/04/09 00:18:48;;;;;;;19.20;12.85;;;;;;;-144.57;100.00;62443.72;5054299;28;20068;-64
2023/04/09 00:21:15;;;;;;;22.42;12.77;;;;;;;-144.57;100.00;62443.72;5052958;28;20520;-64
2023/04/09 00:23:41;;;;;;;27.55;13.40;;;;;;;-144.57;100.00;62443.72;5052773;28;20448;-64
2023/04/09 00:26:07;;;;;;;18.75;11.35;;;;;;;-144.57;100.00;62443.72;5051867;28;20064;-64
2023/04/09 00:28:33;;;;;;;20.52;12.55;;;;;;;-144.57;100.00;62443.72;5053951;28;20068;-64
2023/04/09 00:30:59;;;;;;;22.10;13.27;;;;;;;-144.57;100.00;62443.72;5053023;28;20102;-62
2023/04/09 00:33:25;;;;;;;21.55;12.25;;;;;;;-144.57;100.00;62443.72;5053575;28;20037;-62
2023/04/09 00:35:50;;;;;;;20.85;12.57;;;;;;;-144.57;100.00;62443.72;5036327;28;20044;-62
2023/04/09 00:38:16;;;;;;;23.70;12.68;;;;;;;-144.57;100.00;62443.72;5051714;28;20138;-64
2023/04/09 00:40:42;;;;;;;21.00;13.02;;;;;;;-144.57;100.00;62443.72;5052834;28;20048;-62
2023/04/09 00:43:08;;;;;;;27.85;13.25;;;;;;;-144.57;100.00;62443.72;5052343;28;20041;-64
2023/04/09 00:45:35;;;;;;;21.70;12.73;;;;;;;-144.57;100.00;62443.72;5052542;28;20049;-63
2023/04/09 00:48:01;;;;;;;27.92;12.63;;;;;;;-144.57;100.00;62443.72;5052116;28;20091;-64
2023/04/09 00:50:27;;;;;;;16.42;11.90;;;;;;;-144.57;100.00;62443.72;5051045;28;20057;-61
2023/04/09 00:52:52;;;;;;;21.88;13.07;;;;;;;-144.57;100.00;62443.72;5052215;28;20040;-63
2023/04/09 00:55:20;;;;;;;18.55;11.88;;;;;;;-144.57;100.00;62443.72;5052453;28;20388;-63
2023/04/09 00:57:45;;;;;;;18.02;11.90;;;;;;;-144.57;100.00;62443.72;5035081;28;20041;-63
2023/04/09 01:00:12;;;;;;;18.23;12.23;;;;;;;-144.57;100.00;62443.72;5052216;28;20045;-62
2023/04/09 01:02:39;;;;;;;21.65;12.48;;;;;;;-144.57;100.00;62443.72;5052216;28;20120;-63
2023/04/09 01:05:05;;;;;;;24.35;13.00;;;;;;;-144.57;100.00;62443.72;5052076;28;20033;-62
2023/04/09 01:07:58;;;;;;;18.00;12.77;;;;;;;-144.57;100.00;62443.72;5051863;28;20041;-62
2023/04/09 01:10:33;;;;;;;21.40;12.52;;;;;;;-144.57;100.00;62443.72;5052272;28;20090;-63
2023/04/09 01:13:01;;;;;;;20.63;12.38;;;;;;;-144.57;100.00;62443.72;5035398;28;20426;-63
2023/04/09 01:15:30;;;;;;;19.48;13.63;;;;;;;-144.57;100.00;62443.72;5051902;28;20485;-62
2023/04/09 01:18:11;;;;;;;25.17;13.20;;;;;;;-144.57;100.00;62443.72;5035455;28;20510;-62
2023/04/09 01:20:45;;;;;;;20.95;13.18;;;;;;;-144.57;100.00;62443.72;5035328;28;20564;-63
2023/04/09 01:23:45;;;;;;;26.10;13.27;;;;;;;-144.57;100.00;62443.72;5053114;28;20084;-63
2023/04/09 01:26:38;;;;;;;20.58;13.20;;;;;;;-144.57;100.00;62443.72;5051588;28;20053;-62
2023/04/09 01:29:04;;;;;;;20.63;13.05;;;;;;;-144.57;100.00;62443.72;5051752;28;20044;-62
2023/04/09 01:31:33;;;;;;;20.33;12.23;;;;;;;-144.57;100.00;62443.72;5035147;28;20037;-63
2023/04/09 01:34:00;;;;;;;20.25;12.25;;;;;;;-144.57;100.00;62443.72;5034769;28;20659;-63
2023/04/09 01:36:26;;;;;;;19.92;12.20;;;;;;;-144.57;100.00;62443.72;5051823;28;20056;-62
2023/04/09 01:38:52;;;;;;;19.77;12.68;;;;;;;-144.57;100.00;62443.72;5034811;28;20419;-62
2023/04/09 01:41:23;;;;;;;22.75;12.80;;;;;;;-144.57;100.00;62443.72;5051429;28;20048;-63
2023/04/09 01:43:49;;;;;;;18.90;12.13;;;;;;;-144.57;100.00;62443.72;5051724;28;20045;-62
2023/04/09 01:46:17;;;;;;;20.80;12.32;;;;;;;-144.57;100.00;62443.72;5051197;28;20536;-63
2023/04/09 01:48:43;;;;;;;18.52;12.20;;;;;;;-144.57;100.00;62443.72;5051033;28;20125;-61
2023/04/09 01:51:09;;;;;;;20.98;12.60;;;;;;;-144.57;100.00;62443.72;5050497;28;20124;-63
2023/04/09 01:53:35;;;;;;;22.35;12.68;;;;;;;-144.57;100.00;62443.72;5050876;28;20037;-62
2023/04/09 01:56:02;;;;;;;18.98;12.48;;;;;;;-144.57;100.00;62443.72;5046447;28;20112;-62
2023/04/09 01:58:28;;;;;;;25.55;14.05;;;;;;;-144.57;100.00;62443.72;5051419;28;20414;-63
2023/04/09 02:01:08;;;;;;;20.77;13.13;;;;;;;-144.57;100.00;62443.72;5063900;28;20037;-62
2023/04/09 02:03:38;;;;;;;22.47;12.50;;;;;;;-144.57;100.00;62443.72;5037704;28;20139;-62
2023/04/09 02:06:06;;;;;;;;;;;;;;;-144.57;100.00;62443.72;5054757;28;20049;-62
2023/04/09 02:08:33;;;;;;;19.25;11.88;;;;;;;-144.57;100.00;62443.72;5070994;28;20431;-63
2023/04/09 02:11:03;;;;;;;20.60;12.82;;;;;;;-144.57;100.00;62443.72;5070843;28;20086;-63
2023/04/09 02:13:31;;;;;;;17.17;11.82;;;;;;;-144.57;100.00;62443.72;5070431;28;20094;-62
2023/04/09 02:15:58;;;;;;;22.50;13.00;;;;;;;-144.57;100.00;62443.72;5069731;28;20036;-63
2023/04/09 02:18:26;;;;;;;20.05;13.00;;;;;;;-144.57;100.00;62443.72;5054118;28;20131;-63
2023/04/09 02:20:53;;;;;;;20.90;12.98;;;;;;;-144.57;100.00;62443.72;5070675;28;20472;-62
2023/04/09 02:23:19;;;;;;;20.17;12.93;;;;;;;-144.57;100.00;62443.72;5070543;28;20497;-63
2023/04/09 02:25:45;;;;;;;21.48;12.60;;;;;;;-144.57;100.00;62443.72;5071433;28;20047;-63
2023/04/09 02:28:11;;;;;;;23.52;13.85;;;;;;;-144.57;100.00;62443.72;5069405;28;20514;-60
2023/04/09 02:30:36;;;;;;;25.30;12.90;;;;;;;-144.57;100.00;62443.72;5070183;28;20710;-62
2023/04/09 02:33:02;;;;;;;25.88;12.77;;;;;;;-144.57;100.00;62443.72;5070684;28;20055;-64
2023/04/09 02:35:28;;;;;;;20.48;12.60;;;;;;;-144.57;100.00;62443.72;5071815;28;20043;-63
2023/04/09 02:37:54;;;;;;;22.85;13.30;;;;;;;-144.57;100.00;62443.72;5070166;28;20479;-64
2023/04/09 02:40:20;;;;;;;29.15;13.65;;;;;;;-144.57;100.00;62443.72;5071771;28;20047;-62
2023/04/09 02:42:45;;;;;;;22.83;12.82;;;;;;;-144.57;100.00;62443.72;5071387;28;20418;-63
2023/04/09 02:45:11;;;;;;;25.00;13.63;;;;;;;-144.57;100.00;62443.72;5070365;28;20549;-63
2023/04/09 02:47:37;;;;;;;23.15;12.60;;;;;;;-144.57;100.00;62443.72;5068836;28;20040;-61
2023/04/09 02:50:04;;;;;;;22.50;12.95;;;;;;;-144.57;100.00;62443.72;5071291;28;20067;-62
2023/04/09 02:52:32;;;;;;;25.55;15.73;;;;;;;-144.57;100.00;62443.72;5053504;28;20395;-63
2023/04/09 02:54:58;;;;;;;23.80;16.30;;;;;;;-144.57;100.00;62443.72;5070255;28;20069;-63
2023/04/09 02:57:24;;;;;;;18.02;12.82;;;;;;;-144.57;100.00;62443.72;5069903;28;20421;-63
2023/04/09 02:59:49;;;;;;;23.27;12.73;;;;;;;-144.57;100.00;62443.72;5069963;28;20502;-63
2023/04/09 03:02:15;;;;;;;23.42;12.80;;;;;;;-144.57;100.00;62443.72;5060199;28;20123;-64
2023/04/09 03:04:41;;;;;;;25.77;13.60;;;;;;;-144.57;100.00;62443.72;5059664;28;20526;-63
2023/04/09 03:07:06;;;;;;;20.48;13.15;;;;;;;-144.57;100.00;62443.72;5060136;28;20052;-63
2023/04/09 03:09:32;;;;;;;26.38;13.93;;;;;;;-144.57;100.00;62443.72;5060515;28;20509;-62
2023/04/09 03:11:58;;;;;;;20.48;12.93;;;;;;;-144.57;100.00;62443.72;5059856;28;20048;-64
2023/04/09 03:14:24;;;;;;;21.80;13.27;;;;;;;-144.57;100.00;62443.72;5060325;28;20037;-62
2023/04/09 03:16:49;;;;;;;21.65;13.90;;;;;;;-144.57;100.00;62443.72;5059399;28;20136;-61
2023/04/09 03:19:15;;;;;;;23.48;13.57;;;;;;;-144.57;100.00;62443.72;5061476;28;20041;-62
2023/04/09 03:21:41;;;;;;;25.75;13.38;;;;;;;-144.57;100.00;62443.72;5059566;28;20094;-63
2023/04/09 03:24:07;;;;;;;23.67;13.90;;;;;;;-144.57;100.00;62443.72;5059742;28;20044;-64
2023/04/09 03:26:35;;;;;;;25.33;13.18;;;;;;;-144.57;100.00;62443.72;5063499;28;20127;-63
2023/04/09 03:29:04;;;;;;;24.48;13.60;;;;;;;-144.57;100.00;62443.72;5047007;28;20044;-63
2023/04/09 03:31:30;;;;;;;23.52;13.70;;;;;;;-144.57;100.00;62443.72;5062288;28;20033;-62
2023/04/09 03:33:56;;;;;;;23.92;13.30;;;;;;;-144.57;100.00;62443.72;5063914;28;20044;-63
2023/04/09 03:36:22;;;;;;;26.98;14.07;;;;;;;-144.57;100.00;62443.72;5046929;28;20037;-61
2023/04/09 03:38:54;;;;;;;24.88;14.20;;;;;;;-144.57;100.00;62443.72;5061669;28;20044;-63
2023/04/09 03:41:42;;;;;;;25.70;14.70;;;;;;;-144.57;100.00;62443.72;5065999;28;20151;-61
2023/04/09 03:44:11;;;;;;;;;;;;;;;-144.57;100.00;62443.72;5060880;28;20060;-62
2023/04/09 03:46:52;;;;;;;25.00;14.30;;;;;;;-144.57;100.00;62443.72;5053540;28;19928;-62
2023/04/09 03:49:18;;;;;;;24.58;14.70;;;;;;;-144.57;100.00;62443.72;5067027;28;20063;-62
2023/04/09 03:51:44;;;;;;;27.95;13.95;;;;;;;-144.57;100.00;62443.72;5073399;28;20418;-62
2023/04/09 03:54:11;;;;;;;28.67;14.02;;;;;;;-144.57;100.00;62443.72;5056562;28;20051;-62
2023/04/09 03:56:38;;;;;;;22.70;14.50;;;;;;;-144.57;100.00;62443.72;5056925;28;20113;-63
2023/04/09 03:59:07;;;;;;;23.20;13.25;;;;;;;-144.57;100.00;62443.72;5073211;28;20040;-63
2023/04/09 04:01:39;;;;;;;25.08;13.30;;;;;;;-144.57;100.00;62443.72;5073294;28;20521;-62
2023/04/09 04:04:05;;;;;;;25.73;15.07;;;;;;;-144.57;100.00;62443.72;5053128;28;20044;-62
2023/04/09 04:06:37;;;;;;;28.88;14.30;;;;;;;-144.57;100.00;62443.72;5053196;28;20048;-62
2023/04/09 04:09:18;;;;;;;29.35;14.23;;;;;;;-144.57;100.00;62443.72;5061450;28;20048;-62
2023/04/09 04:12:02;;;;;;;25.08;14.38;;;;;;;-144.57;100.00;62443.72;5055604;28;20044;-62
2023/04/09 04:14:41;;;;;;;23.23;14.68;;;;;;;-144.57;100.00;62443.72;5055116;28;20049;-62
2023/04/09 04:17:18;;;;;;;33.47;17.70;;;;;;;-144.57;100.00;62443.72;5037912;28;20571;-62
2023/04/09 04:19:44;;;;;;;31.85;16.52;;;;;;;-144.57;100.00;62443.72;5067393;28;20037;-62
2023/04/09 04:22:10;;;;;;;34.30;17.60;;;;;;;-144.57;100.00;62443.72;5053288;28;20375;-63
2023/04/09 04:24:40;;;;;;;29.98;16.73;;;;;;;-144.57;100.00;62443.72;5058697;28;20127;-62
2023/04/09 04:27:06;;;;;;;37.47;18.10;;;;;;;-144.57;100.00;62443.72;5064073;28;20041;-64
2023/04/09 04:29:34;;;;;;;26.75;17.25;;;;;;;-144.57;100.00;62443.72;5056221;28;20036;-62
2023/04/09 04:32:01;;;;;;;35.47;17.27;;;;;;;-144.57;100.00;62443.72;5072998;28;20534;-61
2023/04/09 04:34:33;;;;;;;35.40;18.80;;;;;;;-144.57;100.00;62443.72;5072474;28;20524;-63
2023/04/09 04:37:05;;;;;;;36.17;18.25;;;;;;;-144.57;100.00;62443.72;5067861;28;20037;-62
2023/04/09 04:39:32;;;;;;;27.08;16.85;;;;;;;-144.57;100.00;62443.72;5053063;28;20393;-63
2023/04/09 04:42:11;;;;;;;31.77;17.25;;;;;;;-144.57;100.00;62443.72;5057975;28;20044;-63
2023/04/09 04:44:37;;;;;;;31.98;18.00;;;;;;;-144.57;100.00;62443.72;5072431;28;20044;-63
2023/04/09 04:47:15;;;;;;;24.33;16.30;;;;;;;-144.57;100.00;62443.72;5055896;28;20052;-64
2023/04/09 04:49:41;;;;;;;27.65;15.48;;;;;;;-144.57;100.00;62443.72;5072174;28;20150;-63
2023/04/09 04:52:07;;;;;;;24.70;15.15;;;;;;;-144.57;100.00;62443.72;5051811;28;20136;-63
2023/04/09 04:54:35;;;;;;;23.88;14.52;;;;;;;-144.57;100.00;62443.72;5052052;28;20041;-63
2023/04/09 04:57:01;;;;;;;25.15;15.10;;;;;;;-144.57;100.00;62443.72;5069642;28;20048;-63
2023/04/09 04:59:40;;;;;;;28.35;13.95;;;;;;;-144.57;100.00;62443.72;5055162;28;20371;-63
2023/04/09 05:02:08;;;;;;;20.55;13.77;;;;;;;-144.57;100.00;62443.72;5072177;28;20044;-63
2023/04/09 05:04:48;;;;;;;24.73;14.38;;;;;;;-144.57;100.00;62443.72;5073610;28;20049;-62
2023/04/09 05:07:16;;;;;;;24.70;13.88;;;;;;;-144.57;100.00;62443.72;5071909;28;20044;-62
2023/04/09 05:09:50;;;;;;;31.38;14.27;;;;;;;-144.57;100.00;62443.72;5072109;28;20452;-62
2023/04/09 05:12:16;;;;;;;22.60;14.40;;;;;;;-144.57;100.00;62443.72;5071790;28;20044;-64
2023/04/09 05:14:46;;;;;;;;;;;;;;;-144.57;100.00;62443.72;5055613;28;20055;-62
2023/04/09 05:17:11;;;;;;;25.73;14.70;;;;;;;-144.57;100.00;62443.72;5071833;28;20027;-63
2023/04/09 05:19:41;;;;;;;36.92;14.65;;;;;;;-144.57;100.00;62443.72;5052051;28;20056;-62
2023/04/09 05:22:08;;;;;;;26.48;14.10;;;;;;;-144.57;100.00;62443.72;5062633;28;20049;-62
2023/04/09 05:24:34;;;;;;;24.85;14.65;;;;;;;-144.57;100.00;62443.72;5072927;28;20048;-62
2023/04/09 05:27:00;;;;;;;22.95;14.35;;;;;;;-144.57;100.00;62443.72;5071568;28;20075;-64
2023/04/09 05:29:27;;;;;;;24.77;15.25;;;;;;;-144.57;100.00;62443.72;5071206;28;20516;-62
2023/04/09 05:31:52;;;;;;;25.33;14.38;;;;;;;-144.57;100.00;62443.72;5065854;28;20120;-63
2023/04/09 05:34:25;;;;;;;26.88;14.30;;;;;;;-144.57;100.00;62443.72;5051412;28;20044;-64
2023/04/09 05:36:54;;;;;;;34.78;15.05;;;;;;;-144.57;100.00;62443.72;5050646;28;20045;-63
2023/04/09 05:39:21;;;;;;;22.60;14.25;;;;;;;-144.57;100.00;62443.72;5052383;28;20087;-63
2023/04/09 05:41:47;;;;;;;29.38;15.25;;;;;;;-144.57;100.00;62443.72;5051328;28;20322;-65
2023/04/09 05:44:36;;;;;;;28.45;15.23;;;;;;;-144.57;100.00;62443.72;5032369;28;20267;-63
2023/04/09 05:47:13;;;;;;;29.45;14.63;;;;;;;-144.57;100.00;62443.72;5049952;28;20048;-63
2023/04/09 05:49:50;;;;;;;28.20;14.80;;;;;;;-144.57;100.00;62443.72;5035717;28;20056;-63
2023/04/09 05:52:16;;;;;;;31.52;15.43;;;;;;;-144.57;100.00;62443.72;5051126;28;20151;-64
2023/04/09 05:54:42;;;;;;;27.00;14.43;;;;;;;-144.57;100.00;62443.72;5051129;28;20049;-64
2023/04/09 05:57:10;;;;;;;23.85;13.93;;;;;;;-144.57;100.00;62443.72;5036381;28;20529;-63
2023/04/09 05:59:39;;;;;;;20.98;14.57;;;;;;;-144.57;100.00;62443.72;5071153;28;20044;-62
2023/04/09 06:02:04;;;;;;;24.73;14.55;;;;;;;-144.57;100.00;62443.72;5071097;28;20055;-63
2023/04/09 06:04:32;;;;;;;30.70;14.90;;;;;;;-144.57;100.00;62443.72;5070943;28;20048;-61
2023/04/09 06:06:59;;;;;;;25.42;14.88;;;;;;;-144.57;100.00;62443.72;5054586;28;20514;-62
2023/04/09 06:09:26;;;;;;;22.58;15.18;;;;;;;-144.57;100.00;62443.72;5071324;28;20048;-62
2023/04/09 06:11:52;;;;;;;26.80;15.10;;;;;;;-144.57;100.00;62443.72;5069970;28;20128;-62
2023/04/09 06:14:17;;;;;;;25.90;15.43;;;;;;;-144.57;100.00;62443.72;5053119;28;20124;-61
2023/04/09 06:16:43;;;;;;;22.42;15.73;;;;;;;-144.57;100.00;62443.72;5070574;28;20052;-62
2023/04/09 06:19:11;;;;;;;39.35;16.02;;;;;;;-144.57;100.00;62443.72;5053070;28;20037;-63
2023/04/09 06:21:37;;;;;;;30.17;15.43;;;;;;;-144.57;100.00;62443.72;5063770;28;20123;-62
2023/04/09 06:24:02;;;;;;;24.90;14.70;;;;;;;-144.57;100.00;62443.72;5064401;28;20130;-62
2023/04/09 06:26:28;;;;;;;25.92;14.13;;;;;;;-144.57;100.00;62443.72;5071228;28;20044;-65
2023/04/09 06:28:54;;;;;;;25.10;15.07;;;;;;;-144.57;100.00;62443.72;5071273;28;20037;-62
2023/04/09 06:31:19;;;;;;;22.25;14.13;;;;;;;-144.57;100.00;62443.72;5071640;28;20044;-63
2023/04/09 06:33:45;;;;;;;25.30;14.93;;;;;;;-144.57;100.00;62443.72;5066410;28;20071;-63
2023/04/09 06:36:11;;;;;;;30.55;17.02;;;;;;;-144.57;100.00;62443.72;5050681;28;20518;-63
2023/04/09 06:38:36;;;;;;;27.30;15.70;;;;;;;-144.57;100.00;62443.72;5050080;28;20037;-64
2023/04/09 06:41:05;;;;;;;28.73;16.27;;;;;;;-144.57;100.00;62443.72;5052058;28;20036;-63
2023/04/09 06:43:31;;;;;;;23.23;15.32;;;;;;;-144.57;100.00;62443.72;5051537;28;20056;-63
2023/04/09 06:45:57;;;;;;;28.75;15.18;;;;;;;-144.57;100.00;62443.72;5050386;28;20068;-63
2023/04/09 06:48:24;;;;;;;27.80;14.68;;;;;;;-144.57;100.00;62443.72;5049997;28;20055;-63
2023/04/09 06:50:50;;;;;;;28.58;14.75;;;;;;;-144.57;100.00;62443.72;5050812;28;20053;-63
2023/04/09 06:53:16;;;;;;;25.13;14.70;;;;;;;-144.57;100.00;62443.72;5050953;28;20053;-63
2023/04/09 06:55:42;;;;;;;23.05;14.60;;;;;;;-144.57;100.00;62443.72;5049777;28;20569;-64
2023/04/09 06:58:07;;;;;;;21.63;14.52;;;;;;;-144.57;100.00;62443.72;5051293;28;20124;-64
2023/04/09 07:00:33;;;;;;;24.73;14.27;;;;;;;-144.57;100.00;62443.72;5057469;28;20037;-62
2023/04/09 07:02:59;;;;;;;23.88;14.40;;;;;;;-144.57;100.00;62443.72;5059448;28;20127;-63
2023/04/09 07:05:25;;;;;;;25.02;14.15;;;;;;;-144.57;100.00;62443.72;5063712;28;20037;-67
2023/04/09 07:07:51;;;;;;;22.77;13.93;;;;;;;-144.57;100.00;62443.72;5053284;28;20418;-62
2023/04/09 07:10:17;;;;;;;23.58;14.48;;;;;;;-144.57;100.00;62443.72;5058102;28;20040;-64
2023/04/09 07:12:43;;;;;;;25.65;14.07;;;;;;;-144.57;100.00;62443.72;5058795;28;20040;-62
2023/04/09 07:15:08;;;;;;;29.13;15.10;;;;;;;-144.57;100.00;62443.72;5062685;28;20052;-61
2023/04/09 07:17:34;;;;;;;29.98;14.82;;;;;;;-144.57;100.00;62443.72;5058454;28;20049;-63
2023/04/09 07:20:00;;;;;;;23.45;14.15;;;;;;;-144.57;100.00;62443.72;5025539;28;20740;-63
2023/04/09 07:22:31;;;;;;;22.73;14.52;;;;;;;-144.57;100.00;62443.72;5055530;28;20394;-69
2023/04/09 07:24:57;;;;;;;23.73;14.43;;;;;;;-144.57;100.00;62443.72;5061807;28;20037;-62
2023/04/09 07:27:25;;;;;;;25.20;14.10;;;;;;;-144.57;100.00;62443.72;5059582;28;20040;-64
2023/04/09 07:29:52;;;;;;;27.42;14.18;;;;;;;-144.57;100.00;62443.72;5058723;28;20562;-64
2023/04/09 07:32:18;;;;;;;26.42;14.60;;;;;;;-144.57;100.00;62443.72;5050871;28;20045;-71
2023/04/09 07:34:44;;;;;;;23.88;14.63;;;;;;;-144.57;100.00;62443.72;5051082;28;20056;-63
2023/04/09 07:37:10;;;;;;;22.33;14.02;;;;;;;-144.57;100.00;62443.72;5030703;28;20399;-63
2023/04/09 07:39:36;;;;;;;30.83;15.32;;;;;;;-144.57;100.00;62443.72;5032878;28;20041;-64
2023/04/09 07:42:03;;;;;;;27.38;14.70;;;;;;;-144.57;100.00;62443.72;5063869;28;20041;-62
2023/04/09 07:44:32;;;;;;;28.30;14.75;;;;;;;-144.57;100.00;62443.72;5068407;28;20139;-63
2023/04/09 07:46:58;;;;;;;24.67;13.57;;;;;;;-144.57;100.00;62443.72;5069515;28;20049;-63
2023/04/09 07:49:24;;;;;;;28.70;14.57;;;;;;;-144.57;100.00;62443.72;5070643;28;20079;-62
2023/04/09 07:51:49;;;;;;;29.60;15.70;;;;;;;-144.57;100.00;62443.72;5069010;28;20036;-62
2023/04/09 07:54:15;;;;;;;26.50;15.73;;;;;;;-144.57;100.00;62443.72;5070644;28;20101;-62
2023/04/09 07:56:40;;;;;;;25.17;14.55;;;;;;;-144.57;100.00;62443.72;5069327;28;20036;-63
2023/04/09 07:59:06;;;;;;;36.17;15.70;;;;;;;-144.57;100.00;62443.72;5070743;28;20254;-62
2023/04/09 08:01:32;;;;;;;24.52;14.00;;;;;;;-144.57;100.00;62443.72;5070306;28;20128;-62
2023/04/09 08:03:57;;;;;;;20.35;13.30;;;;;;;-144.57;100.00;62443.72;5071004;28;20040;-63
2023/04/09 08:06:23;;;;;;;24.05;14.75;;;;;;;-144.57;100.00;62443.72;5069255;28;20066;-63
2023/04/09 08:08:49;;;;;;;25.48;13.68;;;;;;;-144.57;100.00;62443.72;5070716;28;20508;-61
2023/04/09 08:11:15;;;;;;;24.85;13.45;;;;;;;-144.57;100.00;62443.72;5070029;28;20102;-62
2023/04/09 08:13:41;;;;;;;27.15;14.07;;;;;;;-144.57;100.00;62443.72;5039763;28;20072;-61
2023/04/09 08:16:07;;;;;;;24.98;13.63;;;;;;;-144.57;100.00;62443.72;5056443;28;20048;-61
2023/04/09 08:18:33;;;;;;;26.10;12.90;;;;;;;-144.57;100.00;62443.72;5074066;28;20044;-61
2023/04/09 08:21:03;;;;;;;27.67;13.70;;;;;;;-144.57;100.00;62443.72;5072906;28;20136;-62
2023/04/09 08:23:29;;;;;;;23.92;12.93;;;;;;;-144.57;100.00;62443.72;5073874;28;20127;-63
2023/04/09 08:25:54;;;;;;;23.60;12.10;;;;;;;-144.57;100.00;62443.72;5074604;28;20506;-60
2023/04/09 08:28:20;;;;;;;24.40;12.25;;;;;;;-144.57;100.00;62443.72;5074181;28;20052;-63
2023/04/09 08:30:47;;;;;;;23.73;12.70;;;;;;;-144.57;100.00;62443.72;5073890;28;20040;-63
2023/04/09 08:33:13;;;;;;;23.13;12.77;;;;;;;-144.57;100.00;62443.72;5072661;28;20131;-62
2023/04/09 08:35:40;;;;;;;24.88;12.02;;;;;;;-144.57;100.00;62443.72;5056078;28;20136;-61
2023/04/09 08:38:05;;;;;;;20.98;12.68;;;;;;;-144.57;100.00;62443.72;5072320;28;20133;-62
2023/04/09 08:40:35;;;;;;;25.02;12.23;;;;;;;-144.57;100.00;62443.72;5072744;28;20557;-61
2023/04/09 08:43:05;;;;;;;25.73;13.38;;;;;;;-144.57;100.00;62443.72;5072327;28;20460;-62
2023/04/09 08:45:30;;;;;;;23.63;13.03;;;;;;;-144.57;100.00;62443.72;5072480;28;20036;-63
2023/04/09 08:47:58;;;;;;;23.42;12.85;;;;;;;-144.57;100.00;62443.72;5052546;28;20333;-63
2023/04/09 08:50:25;;;;;;;24.80;12.93;;;;;;;-144.57;100.00;62443.72;5053608;28;20326;-62
2023/04/09 08:52:52;;;;;;;26.63;12.75;;;;;;;-144.57;100.00;62443.72;5057616;28;20036;-60
2023/04/09 08:55:17;;;;;;;22.00;12.32;;;;;;;-144.57;100.00;62443.72;5073462;28;20421;-63
2023/04/09 08:57:43;;;;;;;22.77;12.65;;;;;;;-144.57;100.00;62443.72;5073272;28;20057;-62
2023/04/09 09:00:09;;;;;;;17.85;11.65;;;;;;;-144.57;100.00;62443.72;5073222;28;20045;-61
2023/04/09 09:02:35;;;;;;;20.85;12.10;;;;;;;-144.57;100.00;62443.72;5073495;28;20572;-62
2023/04/09 09:05:01;;;;;;;20.02;12.25;;;;;;;-144.57;100.00;62443.72;5072099;28;20135;-62
2023/04/09 09:07:29;;;;;;;18.73;12.18;;;;;;;-144.57;100.00;62443.72;5072323;28;20040;-61
2023/04/09 09:09:57;;;;;;;22.65;12.85;;;;;;;-144.57;100.00;62443.72;5051743;28;20041;-62
2023/04/09 09:12:37;;;;;;;22.13;12.05;;;;;;;-144.57;100.00;62443.72;5052099;28;20044;-62
2023/04/09 09:15:05;;;;;;;14.80;10.77;;;;;;;-144.57;100.00;62443.72;5062620;28;20056;-64
2023/04/09 09:17:30;;;;;;;18.83;11.13;;;;;;;-144.57;100.00;62443.72;5055124;28;20068;-64
2023/04/09 09:19:57;;;;;;;20.45;11.63;;;;;;;-144.57;100.00;62443.72;5055106;28;20434;-64
2023/04/09 09:22:23;;;;;;;24.38;12.20;;;;;;;-144.57;100.00;62443.72;5071211;28;20405;-65
2023/04/09 09:24:51;;;;;;;17.90;12.05;;;;;;;-144.57;100.00;62443.72;5072733;28;20037;-64
2023/04/09 09:27:38;;;;;;;25.38;12.05;;;;;;;-144.57;100.00;62443.72;5072925;28;20036;-64
2023/04/09 09:30:05;;;;;;;20.30;11.05;;;;;;;-144.57;100.00;62443.72;5069861;28;20043;-64
2023/04/09 09:32:34;;;;;;;20.60;11.43;;;;;;;-144.57;100.00;62443.72;5052754;28;20052;-64
2023/04/09 09:35:04;;;;;;;21.02;10.75;;;;;;;-144.57;100.00;62443.72;5064755;28;20048;-65
2023/04/09 09:37:31;;;;;;;27.17;11.90;;;;;;;-144.57;100.00;62443.72;5072689;28;20036;-63
2023/04/09 09:39:58;;;;;;;27.80;11.82;;;;;;;-144.57;100.00;62443.72;5071082;28;20070;-64
2023/04/09 09:42:25;;;;;;;20.50;11.75;;;;;;;-144.57;100.00;62443.72;5071163;28;20048;-65
2023/04/09 09:44:52;;;;;;;19.15;10.90;;;;;;;-144.57;100.00;62443.72;5070823;28;20116;-65
2023/04/09 09:47:21;;;;;;;21.38;12.23;;;;;;;-144.57;100.00;62443.72;5051953;28;20047;-66
2023/04/09 09:49:48;;;;;;;24.15;11.38;;;;;;;-144.57;100.00;62443.72;5057013;28;20052;-65
2023/04/09 09:52:14;;;;;;;21.27;12.73;;;;;;;-144.57;100.00;62443.72;5071093;28;20072;-64
2023/04/09 09:54:41;;;;;;;27.13;13.02;;;;;;;-144.57;100.00;62443.72;5072063;28;20036;-65
2023/04/09 09:57:12;;;;;;;18.30;11.82;;;;;;;-144.57;100.00;62443.72;5072172;28;20046;-65
2023/04/09 09:59:40;;;;;;;20.25;11.27;;;;;;;-144.57;100.00;62443.72;5071605;28;20486;-64
2023/04/09 10:02:22;;;;;;;23.33;12.27;;;;;;;-144.57;100.00;62443.72;5070927;28;20055;-66
2023/04/09 10:04:51;;;;;;;19.60;12.35;;;;;;;-144.57;100.00;62443.72;5070787;28;20524;-65
2023/04/09 10:07:19;;;;;;;19.13;11.77;;;;;;;-144.57;100.00;62443.72;5072268;28;20050;-66
2023/04/09 10:09:48;;;;;;;21.17;11.70;;;;;;;-144.57;100.00;62443.72;5071802;28;20036;-65
2023/04/09 10:12:13;;;;;;;28.80;11.48;;;;;;;-144.57;100.00;62443.72;5071928;28;20048;-65
2023/04/09 10:14:39;;;;;;;26.20;12.52;;;;;;;-144.57;100.00;62443.72;5071700;28;20036;-65
2023/04/09 10:17:05;;;;;;;23.73;12.25;;;;;;;-144.57;100.00;62443.72;5071950;28;20501;-65
2023/04/09 10:19:36;;;;;;;19.70;11.82;;;;;;;-144.57;100.00;62443.72;5054136;28;20040;-64
2023/04/09 10:22:08;;;;;;;22.23;11.13;;;;;;;-144.57;100.00;62443.72;5070945;28;20076;-66
2023/04/09 10:24:35;;;;;;;19.33;11.52;;;;;;;-144.57;100.00;62443.72;5070835;28;20044;-65
2023/04/09 10:27:15;;;;;;;23.33;11.77;;;;;;;-144.57;100.00;62443.72;5071780;28;20580;-66
2023/04/09 10:29:48;;;;;;;22.80;11.52;;;;;;;-144.57;100.00;62443.72;5071882;28;20076;-65
2023/04/09 10:32:21;;;;;;;18.52;11.63;;;;;;;-144.57;100.00;62443.72;5071565;28;20088;-65
2023/04/09 10:34:48;;;;;;;18.88;11.57;;;;;;;-144.57;100.00;62443.72;5070062;28;20074;-65
2023/04/09 10:37:15;;;;;;;23.02;11.98;;;;;;;-144.57;100.00;62443.72;5070266;28;20430;-66
2023/04/09 10:39:46;;;;;;;27.70;11.77;;;;;;;-144.57;100.00;62443.72;5071596;28;20047;-65
2023/04/09 10:42:17;;;;;;;;;;;;;;;-144.57;100.00;62443.72;5070888;28;20088;-66
2023/04/09 10:44:43;;;;;;;28.90;11.73;;;;;;;-144.57;100.00;62443.72;5071672;28;19965;-65
2023/04/09 10:47:09;;;;;;;29.20;10.90;;;;;;;-144.57;100.00;62443.72;5071433;28;20048;-66
2023/04/09 10:49:37;;;;;;;19.35;11.05;;;;;;;-144.57;100.00;62443.72;5058966;28;20045;-65
2023/04/09 10:52:09;;;;;;;15.15;9.80;;;;;;;-144.57;100.00;62443.72;5059837;28;20044;-65
2023/04/09 10:54:45;;;;;;;15.52;11.00;;;;;;;-144.57;100.00;62443.72;5070044;28;20074;-64
2023/04/09 10:57:16;;;;;;;18.85;10.75;;;;;;;-144.57;100.00;62443.72;5070097;28;20567;-65
2023/04/09 10:59:47;;;;;;;19.80;10.73;;;;;;;-144.57;100.00;62443.72;5071497;28;20051;-64